createdAt,value
2018-10-16T00:00:58.897Z,101575.09
2018-10-16T00:03:28.328Z,101569.31
2018-10-16T00:05:57.676Z,101568.17
2018-10-16T00:08:26.025Z,101575.67
2018-10-16T00:10:54.405Z,101576.93
2018-10-16T00:13:22.770Z,101569.98
2018-10-16T00:15:51.117Z,101571.60
2018-10-16T00:18:19.509Z,101571.54
2018-10-16T00:20:47.848Z,101575.69
2018-10-16T00:23:16.197Z,101574.73
2018-10-16T00:25:44.613Z,101576.74
2018-10-16T00:28:12.972Z,101576.67
2018-10-16T00:30:41.311Z,101569.30
2018-10-16T00:33:10.716Z,101574.25
2018-10-16T00:35:39.048Z,101573.88
2018-10-16T00:38:07.423Z,101573.76
2018-10-16T00:40:35.792Z,101576.52
2018-10-16T00:43:04.150Z,101576.83
2018-10-16T00:45:32.488Z,101573.92
2018-10-16T00:48:01.869Z,101575.73
2018-10-16T00:50:30.217Z,101571.44
2018-10-16T00:52:58.564Z,101577.21
2018-10-16T00:55:26.888Z,101577.41
2018-10-16T00:57:55.237Z,101577.96
2018-10-16T01:00:23.580Z,101575.08
2018-10-16T01:02:51.923Z,101571.64
2018-10-16T01:05:21.343Z,101572.72
2018-10-16T01:07:49.684Z,101581.30
2018-10-16T01:10:18.048Z,101580.16
2018-10-16T01:12:46.416Z,101587.61
2018-10-16T01:15:14.764Z,101588.59
2018-10-16T01:17:43.105Z,101580.62
2018-10-16T01:20:13.156Z,101577.58
2018-10-16T01:22:42.177Z,101587.74
2018-10-16T01:25:11.624Z,101582.45
2018-10-16T01:27:40.511Z,101587.37
2018-10-16T01:30:08.998Z,101584.72
2018-10-16T01:32:37.982Z,101588.08
2018-10-16T01:35:07.296Z,101589.41
2018-10-16T01:37:35.648Z,101587.81
2018-10-16T01:40:05.364Z,101595.44
2018-10-16T01:42:33.712Z,101594.38
2018-10-16T01:45:02.072Z,101585.27
2018-10-16T01:47:30.473Z,101589.23
2018-10-16T01:49:58.816Z,101589.27
2018-10-16T01:52:27.160Z,101592.52
2018-10-16T01:54:55.517Z,101596.09
2018-10-16T01:57:23.876Z,101602.30
2018-10-16T01:59:52.292Z,101597.81
2018-10-16T02:02:20.640Z,101602.93
2018-10-16T02:04:48.989Z,101602.28
2018-10-16T02:07:17.337Z,101609.47
2018-10-16T02:09:45.688Z,101605.27
2018-10-16T02:12:14.045Z,101604.25
2018-10-16T02:14:42.452Z,101602.86
2018-10-16T02:17:10.753Z,101600.37
2018-10-16T02:19:39.105Z,101599.53
2018-10-16T02:22:07.452Z,101606.55
2018-10-16T02:24:36.822Z,101605.00
2018-10-16T02:27:05.225Z,101597.45
2018-10-16T02:29:33.576Z,101604.82
2018-10-16T02:32:01.925Z,101604.66
2018-10-16T02:34:30.285Z,101612.10
2018-10-16T02:36:58.632Z,101609.20
2018-10-16T02:39:26.968Z,101615.66
2018-10-16T02:41:55.313Z,101613.09
2018-10-16T02:44:23.655Z,101606.72
2018-10-16T02:46:51.992Z,101616.37
2018-10-16T02:49:20.340Z,101612.08
2018-10-16T02:51:48.671Z,101615.02
2018-10-16T02:54:17.052Z,101618.23
2018-10-16T02:56:45.384Z,101616.30
2018-10-16T02:59:14.837Z,101617.33
2018-10-16T03:01:43.172Z,101617.13
2018-10-16T03:04:11.524Z,101617.47
2018-10-16T03:06:39.861Z,101617.13
2018-10-16T03:09:09.048Z,101619.51
2018-10-16T03:11:37.387Z,101624.94
2018-10-16T03:14:07.796Z,101618.75
2018-10-16T03:16:36.145Z,101625.45
2018-10-16T03:19:04.484Z,101626.53
2018-10-16T03:21:32.844Z,101619.47
2018-10-16T03:24:01.186Z,101621.50
2018-10-16T03:26:29.529Z,101626.78
2018-10-16T03:28:57.873Z,101623.01
2018-10-16T03:31:26.404Z,101621.24
2018-10-16T03:33:54.765Z,101619.31
2018-10-16T03:36:23.098Z,101619.41
2018-10-16T03:38:51.428Z,101620.17
2018-10-16T03:41:19.747Z,101612.13
2018-10-16T03:43:53.911Z,101611.48
2018-10-16T03:46:22.236Z,101611.99
2018-10-16T03:48:50.600Z,101614.03
2018-10-16T03:51:18.955Z,101613.31
2018-10-16T03:53:47.937Z,101614.64
2018-10-16T03:56:16.313Z,101615.62
2018-10-16T03:58:44.640Z,101619.12
2018-10-16T04:01:12.972Z,101612.13
2018-10-16T04:03:41.292Z,101611.48
2018-10-16T04:06:09.640Z,101625.08
2018-10-16T04:08:37.996Z,101618.14
2018-10-16T04:11:06.499Z,101622.81
2018-10-16T04:13:35.927Z,101628.56
2018-10-16T04:16:04.284Z,101625.16
2018-10-16T04:18:32.608Z,101628.72
2018-10-16T04:21:00.985Z,101622.64
2018-10-16T04:23:29.296Z,101618.53
2018-10-16T04:25:57.743Z,101624.67
2018-10-16T04:28:26.284Z,101627.29
2018-10-16T04:30:54.621Z,101622.49
2018-10-16T04:33:22.997Z,101622.56
2018-10-16T04:35:51.337Z,101627.85
2018-10-16T04:38:19.688Z,101629.67
2018-10-16T04:40:49.125Z,101625.28
2018-10-16T04:43:17.589Z,101627.59
2018-10-16T04:45:45.944Z,101627.29
2018-10-16T04:48:14.360Z,101633.85
2018-10-16T04:50:42.826Z,101639.84
2018-10-16T04:53:11.182Z,101641.11
2018-10-16T04:55:39.504Z,101650.97
2018-10-16T04:58:07.976Z,101651.51
2018-10-16T05:00:36.359Z,101658.41
2018-10-16T05:03:05.050Z,101651.75
2018-10-16T05:05:33.441Z,101658.97
2018-10-16T05:08:01.809Z,101648.27
2018-10-16T05:10:30.278Z,101648.61
2018-10-16T05:12:58.598Z,101651.33
2018-10-16T05:15:28.148Z,101658.44
2018-10-16T05:17:58.629Z,101657.32
2018-10-16T05:20:27.161Z,101664.44
2018-10-16T05:22:56.424Z,101667.56
2018-10-16T05:25:25.744Z,101662.89
2018-10-16T05:27:55.940Z,101670.12
2018-10-16T05:30:24.326Z,101673.77
2018-10-16T05:32:52.756Z,101674.13
2018-10-16T05:35:21.121Z,101683.50
2018-10-16T05:37:49.473Z,101688.33
2018-10-16T05:40:17.846Z,101685.34
2018-10-16T05:42:46.185Z,101684.71
2018-10-16T05:45:14.757Z,101697.86
2018-10-16T05:47:44.348Z,101693.88
2018-10-16T05:50:12.764Z,101701.87
2018-10-16T05:52:41.111Z,101699.55
2018-10-16T05:55:10.008Z,101702.52
2018-10-16T05:57:38.352Z,101709.55
2018-10-16T06:00:18.788Z,101714.03
2018-10-16T06:02:47.792Z,101716.09
2018-10-16T06:05:16.919Z,101721.67
2018-10-16T06:07:45.296Z,101734.06
2018-10-16T06:10:14.104Z,101735.88
2018-10-16T06:12:43.197Z,101737.15
2018-10-16T06:15:12.876Z,101740.77
2018-10-16T06:17:45.436Z,101742.39
2018-10-16T06:20:14.031Z,101748.56
2018-10-16T06:22:43.133Z,101747.83
2018-10-16T06:25:12.564Z,101744.33
2018-10-16T06:27:42.178Z,101747.95
2018-10-16T06:30:10.839Z,101744.33
2018-10-16T06:32:39.389Z,101751.47
2018-10-16T06:35:08.553Z,101749.61
2018-10-16T06:37:36.932Z,101752.11
2018-10-16T06:40:05.913Z,101757.11
2018-10-16T06:42:34.340Z,101758.94
2018-10-16T06:45:03.867Z,101772.13
2018-10-16T06:47:32.288Z,101773.30
2018-10-16T06:50:00.647Z,101774.57
2018-10-16T06:52:29.021Z,101774.81
2018-10-16T06:54:57.499Z,101768.13
2018-10-16T06:57:25.818Z,101771.19
2018-10-16T06:59:54.181Z,101776.34
2018-10-16T07:02:22.561Z,101775.16
2018-10-16T07:04:50.913Z,101776.71
2018-10-16T07:07:19.412Z,101772.41
2018-10-16T07:09:47.628Z,101771.48
2018-10-16T07:12:15.993Z,101776.28
2018-10-16T07:14:44.373Z,101775.44
2018-10-16T07:17:12.721Z,101774.55
2018-10-16T07:19:41.120Z,101774.55
2018-10-16T07:22:11.045Z,101765.30
2018-10-16T07:24:39.397Z,101776.06
2018-10-16T07:27:07.917Z,101773.64
2018-10-16T07:29:36.593Z,101775.70
2018-10-16T07:32:05.425Z,101775.34
2018-10-16T07:34:34.377Z,101771.03
2018-10-16T07:37:03.797Z,101778.17
2018-10-16T07:39:32.228Z,101784.57
2018-10-16T07:42:01.670Z,101782.75
2018-10-16T07:44:30.122Z,101790.77
2018-10-16T07:46:58.641Z,101786.22
2018-10-16T07:49:26.985Z,101790.69
2018-10-16T07:51:57.368Z,101787.58
2018-10-16T07:54:25.721Z,101794.81
2018-10-16T07:56:54.056Z,101791.61
2018-10-16T07:59:22.429Z,101792.63
2018-10-16T08:01:51.907Z,101798.67
2018-10-16T08:04:20.320Z,101790.80
2018-10-16T08:06:48.695Z,101790.44
2018-10-16T08:09:18.152Z,101791.02
2018-10-16T08:11:47.616Z,101794.00
2018-10-16T08:14:17.253Z,101797.46
2018-10-16T08:16:46.936Z,101796.77
2018-10-16T08:19:15.644Z,101797.18
2018-10-16T08:21:44.815Z,101800.63
2018-10-16T08:24:14.252Z,101801.60
2018-10-16T08:26:42.700Z,101811.02
2018-10-16T08:29:10.996Z,101810.77
2018-10-16T08:31:39.624Z,101811.20
2018-10-16T08:34:08.084Z,101801.29
2018-10-16T08:36:36.489Z,101800.66
2018-10-16T08:39:13.900Z,101791.02
2018-10-16T08:44:13.117Z,101797.33
2018-10-16T08:46:52.780Z,101799.08
2018-10-16T08:49:32.337Z,101803.91
2018-10-16T08:52:00.704Z,101798.84
2018-10-16T08:54:29.065Z,101806.48
2018-10-16T08:56:57.426Z,101800.97
2018-10-16T08:59:25.809Z,101808.14
2018-10-16T09:01:54.236Z,101802.45
2018-10-16T09:04:22.613Z,101800.95
2018-10-16T09:06:51.030Z,101801.11
2018-10-16T09:09:19.576Z,101805.47
2018-10-16T09:11:50.090Z,101798.81
2018-10-16T09:14:18.905Z,101799.71
2018-10-16T09:16:47.576Z,101801.75
2018-10-16T09:19:15.972Z,101804.17
2018-10-16T09:21:44.440Z,101805.56
2018-10-16T09:24:12.813Z,101807.72
2018-10-16T09:26:41.217Z,101803.17
2018-10-16T09:29:09.743Z,101812.03
2018-10-16T09:31:41.869Z,101816.82
2018-10-16T09:34:10.536Z,101814.76
2018-10-16T09:36:38.907Z,101819.13
2018-10-16T09:39:10.410Z,101822.63
2018-10-16T09:41:38.759Z,101821.80
2018-10-16T09:44:07.146Z,101816.55
2018-10-16T09:46:35.514Z,101819.80
2018-10-16T09:49:03.910Z,101823.63
2018-10-16T09:51:32.299Z,101815.05
2018-10-16T09:54:02.041Z,101819.91
2018-10-16T09:56:31.649Z,101821.89
2018-10-16T09:59:00.085Z,101819.42
2018-10-16T10:01:33.697Z,101814.95
2018-10-16T10:04:02.177Z,101816.91
2018-10-16T10:06:31.699Z,101809.34
2018-10-16T10:09:00.073Z,101814.16
2018-10-16T10:11:28.486Z,101810.41
2018-10-16T10:13:56.861Z,101807.26
2018-10-16T10:16:25.233Z,101816.52
2018-10-16T10:18:53.701Z,101812.37
2018-10-16T10:21:22.075Z,101816.09
2018-10-16T10:23:50.476Z,101814.42
2018-10-16T10:26:18.897Z,101810.58
2018-10-16T10:28:47.246Z,101822.27
2018-10-16T10:31:15.604Z,101816.47
2018-10-16T10:33:44.045Z,101818.70
2018-10-16T10:36:12.622Z,101826.20
2018-10-16T10:38:41.114Z,101822.10
2018-10-16T10:41:09.666Z,101819.36
2018-10-16T10:43:38.022Z,101814.85
2018-10-16T10:46:06.837Z,101821.55
2018-10-16T10:48:35.196Z,101817.50
2018-10-16T10:51:03.701Z,101817.60
2018-10-16T10:53:31.918Z,101814.19
2018-10-16T10:56:00.284Z,101815.59
2018-10-16T10:58:28.637Z,101813.10
2018-10-16T11:00:57.008Z,101807.92
2018-10-16T11:03:25.488Z,101812.06
2018-10-16T11:05:53.748Z,101804.48
2018-10-16T11:08:22.108Z,101813.04
2018-10-16T11:10:51.508Z,101809.77
2018-10-16T11:13:19.864Z,101816.52
2018-10-16T11:15:48.369Z,101813.45
2018-10-16T11:18:17.724Z,101814.31
2018-10-16T11:20:46.093Z,101810.77
2018-10-16T11:23:14.454Z,101814.05
2018-10-16T11:25:42.813Z,101811.42
2018-10-16T11:28:11.180Z,101812.95
2018-10-16T11:30:39.557Z,101811.05
2018-10-16T11:33:07.976Z,101811.82
2018-10-16T11:35:36.290Z,101810.36
2018-10-16T11:38:04.761Z,101805.09
2018-10-16T11:40:33.141Z,101808.59
2018-10-16T11:43:01.484Z,101812.79
2018-10-16T11:45:29.856Z,101815.22
2018-10-16T11:47:58.217Z,101808.80
2018-10-16T11:50:26.613Z,101812.44
2018-10-16T11:52:54.978Z,101813.52
2018-10-16T11:55:23.353Z,101813.89
2018-10-16T11:57:51.694Z,101817.42
2018-10-16T12:00:20.102Z,101817.69
2018-10-16T12:02:48.876Z,101819.17
2018-10-16T12:05:17.236Z,101817.90
2018-10-16T12:07:45.593Z,101813.53
2018-10-16T12:10:15.988Z,101808.66
2018-10-16T12:12:44.333Z,101816.45
2018-10-16T12:15:12.680Z,101809.35
2018-10-16T12:17:49.120Z,101812.70
2018-10-16T12:20:20.552Z,101816.82
2018-10-16T12:22:48.910Z,101820.98
2018-10-16T12:25:17.413Z,101817.98
2018-10-16T12:27:45.728Z,101821.10
2018-10-16T12:30:16.121Z,101822.08
2018-10-16T12:32:44.588Z,101820.66
2018-10-16T12:35:12.929Z,101816.52
2018-10-16T12:37:41.270Z,101824.34
2018-10-16T12:40:10.936Z,101820.15
2018-10-16T12:42:39.447Z,101819.97
2018-10-16T12:45:08.453Z,101821.16
2018-10-16T12:47:36.811Z,101820.28
2018-10-16T12:50:05.533Z,101816.19
2018-10-16T12:52:33.874Z,101813.52
2018-10-16T12:55:02.277Z,101825.14
2018-10-16T12:57:30.681Z,101821.96
2018-10-16T12:59:59.076Z,101826.03
2018-10-16T13:02:27.444Z,101821.65
2018-10-16T13:04:57.812Z,101823.73
2018-10-16T13:07:35.284Z,101820.80
2018-10-16T13:10:04.549Z,101826.58
2018-10-16T13:12:32.888Z,101824.33
2018-10-16T13:15:02.347Z,101821.75
2018-10-16T13:17:31.797Z,101820.89
2018-10-16T13:20:00.214Z,101826.27
2018-10-16T13:22:28.580Z,101824.02
2018-10-16T13:24:56.966Z,101819.14
2018-10-16T13:27:25.369Z,101827.23
2018-10-16T13:29:53.799Z,101822.36
2018-10-16T13:32:22.166Z,101825.85
2018-10-16T13:34:50.678Z,101823.91
2018-10-16T13:37:19.090Z,101824.78
2018-10-16T13:39:47.453Z,101819.69
2018-10-16T13:42:15.889Z,101821.07
2018-10-16T13:44:45.329Z,101824.31
2018-10-16T13:47:13.701Z,101826.53
2018-10-16T13:49:42.063Z,101828.92
2018-10-16T13:52:10.478Z,101823.59
2018-10-16T13:54:38.849Z,101830.50
2018-10-16T13:57:07.224Z,101833.39
2018-10-16T13:59:35.661Z,101835.97
2018-10-16T14:02:04.248Z,101829.95
2018-10-16T14:04:32.553Z,101839.23
2018-10-16T14:07:00.925Z,101837.03
2018-10-16T14:09:29.285Z,101840.81
2018-10-16T14:11:58.673Z,101833.22
2018-10-16T14:14:27.033Z,101837.89
2018-10-16T14:16:55.391Z,101831.61
2018-10-16T14:19:23.746Z,101836.27
2018-10-16T14:21:52.181Z,101839.59
2018-10-16T14:24:20.531Z,101839.95
2018-10-16T14:26:48.952Z,101840.95
2018-10-16T14:29:18.381Z,101840.73
2018-10-16T14:31:46.736Z,101844.55
2018-10-16T14:34:15.108Z,101845.22
2018-10-16T14:36:43.722Z,101853.55
2018-10-16T14:39:12.826Z,101857.01
2018-10-16T14:41:42.277Z,101851.55
2018-10-16T14:44:11.729Z,101857.02
2018-10-16T14:46:40.037Z,101857.71
2018-10-16T14:49:09.417Z,101863.98
2018-10-16T14:51:41.593Z,101854.81
2018-10-16T14:54:09.969Z,101867.06
2018-10-16T14:56:38.337Z,101858.09
2018-10-16T14:59:06.711Z,101862.33
2018-10-16T15:01:35.141Z,101874.15
2018-10-16T15:04:03.498Z,101875.98
2018-10-16T15:06:31.848Z,101870.56
2018-10-16T15:09:01.217Z,101875.31
2018-10-16T15:11:29.689Z,101875.48
2018-10-16T15:13:58.043Z,101868.90
2018-10-16T15:16:27.564Z,101866.91
2018-10-16T15:18:55.913Z,101871.77
2018-10-16T15:21:24.301Z,101869.90
2018-10-16T15:23:52.747Z,101872.14
2018-10-16T15:26:22.088Z,101873.75
2018-10-16T15:28:50.444Z,101876.64
2018-10-16T15:31:18.800Z,101874.20
2018-10-16T15:33:47.145Z,101877.98
2018-10-16T15:36:15.515Z,101882.19
2018-10-16T15:38:43.876Z,101885.18
2018-10-16T15:41:12.249Z,101886.00
2018-10-16T15:43:40.608Z,101894.80
2018-10-16T15:46:09.073Z,101895.97
2018-10-16T15:48:37.372Z,101895.38
2018-10-16T15:51:05.745Z,101892.39
2018-10-16T15:53:34.130Z,101897.45
2018-10-16T15:56:02.529Z,101890.95
2018-10-16T15:58:30.984Z,101897.59
2018-10-16T16:00:59.409Z,101899.62
2018-10-16T16:03:27.816Z,101905.45
2018-10-16T16:05:56.207Z,101909.95
2018-10-16T16:08:24.820Z,101912.59
2018-10-16T16:10:53.150Z,101919.47
2018-10-16T16:13:21.502Z,101917.94
2018-10-16T16:15:51.878Z,101915.84
2018-10-16T16:18:20.365Z,101912.69
2018-10-16T16:20:48.623Z,101915.00
2018-10-16T16:23:17.022Z,101908.78
2018-10-16T16:25:45.402Z,101911.80
2018-10-16T16:28:13.808Z,101912.35
2018-10-16T16:30:44.145Z,101920.98
2018-10-16T16:33:12.495Z,101918.70
2018-10-16T16:35:40.870Z,101921.84
2018-10-16T16:38:10.371Z,101925.33
2018-10-16T16:40:38.685Z,101922.17
2018-10-16T16:43:07.060Z,101930.44
2018-10-16T16:45:35.430Z,101933.52
2018-10-16T16:48:05.760Z,101936.52
2018-10-16T16:50:34.137Z,101940.59
2018-10-16T16:53:04.606Z,101944.56
2018-10-16T16:55:32.949Z,101942.94
2018-10-16T16:58:01.321Z,101939.69
2018-10-16T17:00:29.694Z,101948.45
2018-10-16T17:02:58.053Z,101944.41
2018-10-16T17:05:26.453Z,101951.73
2018-10-16T17:07:54.842Z,101956.38
2018-10-16T17:10:23.169Z,101952.19
2018-10-16T17:12:55.553Z,101948.70
2018-10-16T17:15:23.892Z,101951.55
2018-10-16T17:17:52.258Z,101953.70
2018-10-16T17:20:20.629Z,101956.80
2018-10-16T17:22:48.985Z,101950.63
2018-10-16T17:25:19.478Z,101955.63
2018-10-16T17:27:48.749Z,101960.62
2018-10-16T17:30:17.692Z,101966.80
2018-10-16T17:32:46.519Z,101968.98
2018-10-16T17:35:15.309Z,101971.00
2018-10-16T17:37:43.777Z,101973.84
2018-10-16T17:40:14.526Z,101976.62
2018-10-16T17:42:42.952Z,101977.23
2018-10-16T17:45:16.272Z,101972.96
2018-10-16T17:47:46.005Z,101977.35
2018-10-16T17:50:16.184Z,101979.31
2018-10-16T17:52:44.556Z,101976.78
2018-10-16T17:55:13.827Z,101982.81
2018-10-16T17:57:42.282Z,101977.05
2018-10-16T18:00:15.807Z,101982.44
2018-10-16T18:02:44.641Z,101982.28
2018-10-16T18:05:13.623Z,101984.02
2018-10-16T18:07:42.537Z,101982.04
2018-10-16T18:10:10.927Z,101986.77
2018-10-16T18:12:41.399Z,101987.83
2018-10-16T18:15:11.793Z,101988.85
2018-10-16T18:17:40.930Z,101989.91
2018-10-16T18:20:10.868Z,101998.31
2018-10-16T18:22:39.292Z,101996.92
2018-10-16T18:25:09.078Z,101995.79
2018-10-16T18:27:37.443Z,101996.23
2018-10-16T18:30:08.309Z,101996.53
2018-10-16T18:32:36.704Z,101993.59
2018-10-16T18:35:05.077Z,101997.86
2018-10-16T18:37:33.638Z,102006.84
2018-10-16T18:40:02.042Z,102004.31
2018-10-16T18:42:30.353Z,102004.61
2018-10-16T18:44:58.786Z,102001.95
2018-10-16T18:47:27.500Z,102007.25
2018-10-16T18:49:55.924Z,102008.58
2018-10-16T18:52:24.270Z,102006.61
2018-10-16T18:54:52.592Z,102005.55
2018-10-16T18:57:21.944Z,102007.86
2018-10-16T18:59:50.298Z,102007.18
2018-10-16T19:02:18.679Z,101997.56
2018-10-16T19:04:47.010Z,102007.81
2018-10-16T19:07:15.340Z,102008.23
2018-10-16T19:09:43.704Z,102008.80
2018-10-16T19:12:12.156Z,102007.25
2018-10-16T19:14:40.496Z,102010.05
2018-10-16T19:17:08.856Z,102009.06
2018-10-16T19:19:37.240Z,102006.98
2018-10-16T19:22:06.621Z,101996.75
2018-10-16T19:24:34.960Z,102004.33
2018-10-16T19:27:03.439Z,102001.97
2018-10-16T19:29:31.765Z,102000.99
2018-10-16T19:32:00.129Z,102003.25
2018-10-16T19:34:28.496Z,102003.73
2018-10-16T19:36:56.869Z,102006.65
2018-10-16T19:39:25.229Z,102000.18
2018-10-16T19:41:53.646Z,101994.73
2018-10-16T19:44:22.001Z,102000.87
2018-10-16T19:46:50.362Z,102000.60
2018-10-16T19:49:18.831Z,101995.65
2018-10-16T19:51:47.272Z,101997.73
2018-10-16T19:54:15.637Z,101998.44
2018-10-16T19:56:45.051Z,101997.31
2018-10-16T19:59:14.405Z,102000.72
2018-10-16T20:01:42.821Z,101999.28
2018-10-16T20:04:11.212Z,102004.58
2018-10-16T20:06:39.568Z,102004.07
2018-10-16T20:09:09.648Z,102009.37
2018-10-16T20:11:38.001Z,102002.74
2018-10-16T20:14:06.484Z,101999.20
2018-10-16T20:16:34.750Z,101999.06
2018-10-16T20:19:03.137Z,101998.52
2018-10-16T20:21:31.502Z,101999.61
2018-10-16T20:23:59.863Z,101996.42
2018-10-16T20:26:28.269Z,102004.22
2018-10-16T20:28:57.788Z,102001.23
2018-10-16T20:31:26.149Z,102001.23
2018-10-16T20:33:54.538Z,101988.88
2018-10-16T20:36:22.920Z,101994.46
2018-10-16T20:38:51.304Z,101994.06
2018-10-16T20:41:19.791Z,101983.13
2018-10-16T20:43:48.136Z,101984.99
2018-10-16T20:46:16.536Z,101980.83
2018-10-16T20:48:44.925Z,101979.27
2018-10-16T20:51:13.264Z,101979.16
2018-10-16T20:53:42.913Z,101978.05
2018-10-16T20:56:11.497Z,101977.75
2018-10-16T20:58:40.889Z,101981.64
2018-10-16T21:01:10.407Z,101986.67
2018-10-16T21:03:38.836Z,101982.56
2018-10-16T21:06:07.575Z,101981.72
2018-10-16T21:08:35.653Z,101980.11
2018-10-16T21:11:04.298Z,101980.06
2018-10-16T21:13:33.659Z,101978.25
2018-10-16T21:16:02.032Z,101981.94
2018-10-16T21:18:30.444Z,101973.48
2018-10-16T21:20:58.868Z,101973.31
2018-10-16T21:23:27.245Z,101975.81
2018-10-16T21:25:55.658Z,101968.86
2018-10-16T21:28:24.030Z,101968.72
2018-10-16T21:30:52.393Z,101962.16
2018-10-16T21:33:20.863Z,101963.00
2018-10-16T21:35:54.752Z,101965.73
2018-10-16T21:38:24.205Z,101966.48
2018-10-16T21:40:52.628Z,101966.84
2018-10-16T21:43:20.961Z,101956.50
2018-10-16T21:45:51.449Z,101960.52
2018-10-16T21:48:19.830Z,101957.88
2018-10-16T21:50:48.266Z,101956.89
2018-10-16T21:53:16.677Z,101959.80
2018-10-16T21:55:45.157Z,101961.55
2018-10-16T21:58:13.773Z,101960.23
2018-10-16T22:00:47.537Z,101954.79
2018-10-16T22:03:15.916Z,101955.42
2018-10-16T22:05:44.312Z,101955.14
2018-10-16T22:08:12.840Z,101958.76
2018-10-16T22:10:41.166Z,101955.28
2018-10-16T22:13:10.100Z,101951.36
2018-10-16T22:15:38.493Z,101954.94
2018-10-16T22:18:06.929Z,101947.49
2018-10-16T22:20:35.316Z,101952.78
2018-10-16T22:23:05.104Z,101943.67
2018-10-16T22:25:33.461Z,101947.64
2018-10-16T22:28:01.884Z,101945.67
2018-10-16T22:30:32.432Z,101945.19
2018-10-16T22:33:00.796Z,101935.84
2018-10-16T22:35:29.144Z,101936.19
2018-10-16T22:37:57.624Z,101937.25
2018-10-16T22:40:25.970Z,101934.27
2018-10-16T22:42:54.385Z,101931.91
2018-10-16T22:45:23.205Z,101927.75
2018-10-16T22:47:51.554Z,101925.32
2018-10-16T22:50:19.935Z,101927.30
2018-10-16T22:52:49.688Z,101921.73
2018-10-16T22:55:18.124Z,101924.52
2018-10-16T22:57:46.496Z,101918.39
2018-10-16T23:00:17.853Z,101920.49
2018-10-16T23:02:58.996Z,101919.92
2018-10-16T23:05:28.381Z,101925.20
2018-10-16T23:07:56.778Z,101927.30
2018-10-16T23:10:25.144Z,101933.39
2018-10-16T23:12:58.988Z,101930.41
2018-10-16T23:15:27.441Z,101941.94
2018-10-16T23:17:55.795Z,101937.28
2018-10-16T23:20:24.278Z,101935.03
2018-10-16T23:22:52.682Z,101935.32
2018-10-16T23:25:21.035Z,101935.91
2018-10-16T23:27:49.365Z,101943.83
2018-10-16T23:30:17.771Z,101936.13
2018-10-16T23:32:46.436Z,101938.05
2018-10-16T23:35:14.841Z,101940.34
2018-10-16T23:37:43.149Z,101938.06
2018-10-16T23:40:11.512Z,101939.28
2018-10-16T23:42:39.968Z,101936.98
2018-10-16T23:45:08.401Z,101937.12
2018-10-16T23:47:36.760Z,101940.95
2018-10-16T23:50:05.317Z,101935.64
2018-10-16T23:52:33.696Z,101937.73
2018-10-16T23:55:02.127Z,101939.32
2018-10-16T23:57:30.650Z,101932.86
2018-10-16T23:59:59.091Z,101929.73
